Time,TemperatureF,DewpointF,PressureIn,WindDirection,WindDirectionDegrees,WindSpeedMPH,WindSpeedGustMPH,Humidity,HourlyPrecipIn,Conditions,Clouds,dailyrainin,SoftwareType,DateUTC
2013-06-28 00:05:00,68.3,67.4,29.66,NE,53,1.0,15.0,97,0.17,,,0.07,Wunderground v.1.15,2013-06-28 04:05:00,
2013-06-28 00:10:00,68.3,67.4,29.65,ENE,58,2.0,15.0,97,0.08,,,0.07,Wunderground v.1.15,2013-06-28 04:10:00,
2013-06-28 00:15:00,68.3,67.4,29.65,ENE,71,2.0,15.0,97,0.04,,,0.07,Wunderground v.1.15,2013-06-28 04:15:00,
2013-06-28 00:20:00,68.4,67.5,29.65,East,88,2.0,15.0,97,0.04,,,0.08,Wunderground v.1.15,2013-06-28 04:20:00,
2013-06-28 00:30:00,68.4,67.5,29.64,East,96,2.0,15.0,97,0.04,,,0.08,Wunderground v.1.15,2013-06-28 04:30:00,
2013-06-28 00:35:00,68.4,67.5,29.63,ESE,107,3.0,15.0,97,0.04,,,0.09,Wunderground v.1.15,2013-06-28 04:35:00,
2013-06-28 00:45:00,68.6,67.7,29.63,ESE,105,2.0,15.0,97,0.04,,,0.09,Wunderground v.1.15,2013-06-28 04:45:00,
2013-06-28 00:50:00,68.7,67.8,29.63,East,96,1.0,15.0,97,0.00,,,0.09,Wunderground v.1.15,2013-06-28 04:50:00,
2013-06-28 00:55:00,68.7,68.1,29.64,ESE,113,1.0,15.0,98,0.00,,,0.09,Wunderground v.1.15,2013-06-28 04:55:00,
2013-06-28 01:00:00,69.0,68.4,29.63,ESE,102,2.0,15.0,98,0.00,,,0.09,Wunderground v.1.15,2013-06-28 05:00:00,
2013-06-28 01:10:00,69.2,68.6,29.63,ESE,107,2.0,15.0,98,0.00,,,0.09,Wunderground v.1.15,2013-06-28 05:10:00,
2013-06-28 01:20:00,69.6,69.0,29.62,SE,134,2.0,15.0,98,0.00,,,0.09,Wunderground v.1.15,2013-06-28 05:20:00,
2013-06-28 01:30:00,69.7,69.1,29.62,SE,131,2.0,15.0,98,0.00,,,0.10,Wunderground v.1.15,2013-06-28 05:30:00,
2013-06-28 01:40:00,69.9,69.3,29.60,ESE,107,2.0,15.0,98,0.00,,,0.10,Wunderground v.1.15,2013-06-28 05:40:00,
2013-06-28 01:50:00,70.0,69.4,29.60,ESE,120,3.0,3.0,98,0.00,,,0.10,Wunderground v.1.15,2013-06-28 05:50:00,
2013-06-28 02:00:00,70.1,69.8,29.59,East,89,2.0,2.0,99,0.00,,,0.10,Wunderground v.1.15,2013-06-28 06:00:00,
2013-06-28 02:05:00,70.2,69.9,29.59,ESE,111,2.0,15.0,99,0.00,,,0.10,Wunderground v.1.15,2013-06-28 06:05:00,
2013-06-28 02:10:00,70.2,69.9,29.59,SE,129,2.0,2.0,99,0.00,,,0.10,Wunderground v.1.15,2013-06-28 06:10:00,
2013-06-28 02:20:00,70.4,70.1,29.59,SSW,210,1.0,15.0,99,0.00,,,0.10,Wunderground v.1.15,2013-06-28 06:20:00,
2013-06-28 02:25:00,70.5,70.2,29.58,SE,135,2.0,15.0,99,0.00,,,0.10,Wunderground v.1.15,2013-06-28 06:25:00,
2013-06-28 02:35:00,70.6,70.3,29.58,SE,129,1.0,15.0,99,0.00,,,0.10,Wunderground v.1.15,2013-06-28 06:35:00,
2013-06-28 02:45:00,70.8,70.5,29.58,ESE,107,1.0,15.0,99,0.00,,,0.10,Wunderground v.1.15,2013-06-28 06:45:00,
2013-06-28 02:55:00,70.7,70.4,29.58,SE,124,1.0,15.0,99,0.00,,,0.10,Wunderground v.1.15,2013-06-28 06:55:00,
2013-06-28 03:05:00,70.7,70.4,29.59,SE,131,1.0,15.0,99,0.00,,,0.10,Wunderground v.1.15,2013-06-28 07:05:00,
2013-06-28 03:10:00,70.7,70.4,29.59,SE,143,0.0,15.0,99,0.00,,,0.10,Wunderground v.1.15,2013-06-28 07:10:00,
2013-06-28 03:20:00,70.8,70.5,29.58,SE,134,1.0,1.0,99,0.00,,,0.10,Wunderground v.1.15,2013-06-28 07:20:00,
2013-06-28 03:25:00,70.8,70.5,29.58,SE,133,0.0,15.0,99,0.00,,,0.10,Wunderground v.1.15,2013-06-28 07:25:00,
2013-06-28 03:35:00,70.8,70.5,29.57,South,181,0.0,15.0,99,0.00,,,0.10,Wunderground v.1.15,2013-06-28 07:35:00,
2013-06-28 03:40:00,70.7,70.4,29.57,SE,129,0.0,15.0,99,0.00,,,0.10,Wunderground v.1.15,2013-06-28 07:40:00,
2013-06-28 03:50:00,70.7,70.4,29.57,ESE,120,0.0,15.0,99,0.00,,,0.10,Wunderground v.1.15,2013-06-28 07:50:00,
2013-06-28 03:55:00,70.6,70.3,29.57,SE,135,0.0,15.0,99,0.00,,,0.10,Wunderground v.1.15,2013-06-28 07:55:00,
2013-06-28 04:05:00,70.6,70.3,29.56,SW,224,0.0,15.0,99,0.00,,,0.10,Wunderground v.1.15,2013-06-28 08:05:00,
2013-06-28 04:10:00,70.6,70.3,29.56,SSE,151,1.0,1.0,99,0.00,,,0.10,Wunderground v.1.15,2013-06-28 08:10:00,
2013-06-28 04:20:00,70.5,70.2,29.56,SE,127,1.0,1.0,99,0.00,,,0.10,Wunderground v.1.15,2013-06-28 08:20:00,
2013-06-28 04:30:00,70.4,69.8,29.56,SE,136,0.0,15.0,98,0.00,,,0.10,Wunderground v.1.15,2013-06-28 08:30:00,
2013-06-28 04:40:00,70.4,70.1,29.56,SE,132,1.0,1.0,99,0.00,,,0.10,Wunderground v.1.15,2013-06-28 08:40:00,
2013-06-28 04:45:00,70.4,70.1,29.56,SSE,152,1.0,15.0,99,0.00,,,0.10,Wunderground v.1.15,2013-06-28 08:45:00,
2013-06-28 04:55:00,70.3,70.0,29.56,SE,129,1.0,15.0,99,0.00,,,0.10,Wunderground v.1.15,2013-06-28 08:55:00,
2013-06-28 05:05:00,70.4,70.1,29.56,SE,125,1.0,15.0,99,0.00,,,0.10,Wunderground v.1.15,2013-06-28 09:05:00,
2013-06-28 05:15:00,70.3,70.0,29.55,ESE,111,1.0,15.0,99,0.00,,,0.10,Wunderground v.1.15,2013-06-28 09:15:00,
2013-06-28 05:20:00,70.2,69.9,29.55,SE,143,1.0,15.0,99,0.00,,,0.10,Wunderground v.1.15,2013-06-28 09:20:00,
2013-06-28 05:25:00,70.2,69.6,29.56,South,170,1.0,15.0,98,0.00,,,0.10,Wunderground v.1.15,2013-06-28 09:25:00,
2013-06-28 05:35:00,70.1,69.8,29.55,ESE,105,1.0,15.0,99,0.00,,,0.10,Wunderground v.1.15,2013-06-28 09:35:00,
2013-06-28 05:40:00,70.1,69.8,29.55,SE,129,1.0,15.0,99,0.00,,,0.10,Wunderground v.1.15,2013-06-28 09:40:00,
2013-06-28 05:50:00,70.0,69.7,29.55,ESE,115,1.0,15.0,99,0.00,,,0.10,Wunderground v.1.15,2013-06-28 09:50:00,
2013-06-28 06:00:00,70.0,69.7,29.55,SSE,153,1.0,1.0,99,0.00,,,0.10,Wunderground v.1.15,2013-06-28 10:00:00,
2013-06-28 06:10:00,70.0,69.7,29.55,SE,142,1.0,1.0,99,0.00,,,0.10,Wunderground v.1.15,2013-06-28 10:10:00,
2013-06-28 06:20:00,70.1,69.8,29.54,East,91,1.0,15.0,99,0.00,,,0.10,Wunderground v.1.15,2013-06-28 10:20:00,
2013-06-28 06:30:00,70.2,69.9,29.54,SSE,165,1.0,15.0,99,0.00,,,0.10,Wunderground v.1.15,2013-06-28 10:30:00,
2013-06-28 06:40:00,70.3,70.0,29.54,SE,133,0.0,15.0,99,0.00,,,0.10,Wunderground v.1.15,2013-06-28 10:40:00,
2013-06-28 06:50:00,70.4,70.1,29.54,ENE,64,0.0,15.0,99,0.00,,,0.10,Wunderground v.1.15,2013-06-28 10:50:00,
2013-06-28 07:00:00,70.5,70.2,29.55,East,99,0.0,15.0,99,0.00,,,0.10,Wunderground v.1.15,2013-06-28 11:00:00,
2013-06-28 07:05:00,70.5,70.2,29.55,SSE,153,1.0,15.0,99,0.00,,,0.10,Wunderground v.1.15,2013-06-28 11:05:00,
2013-06-28 07:15:00,70.6,70.0,29.55,SE,138,0.0,15.0,98,0.00,,,0.10,Wunderground v.1.15,2013-06-28 11:15:00,
2013-06-28 07:20:00,70.6,70.0,29.55,East,82,0.0,15.0,98,0.00,,,0.10,Wunderground v.1.15,2013-06-28 11:20:00,
2013-06-28 07:30:00,70.7,70.1,29.55,ESE,115,1.0,1.0,98,0.00,,,0.10,Wunderground v.1.15,2013-06-28 11:30:00,
2013-06-28 07:40:00,70.7,70.1,29.56,SSE,166,0.0,15.0,98,0.00,,,0.10,Wunderground v.1.15,2013-06-28 11:40:00,
2013-06-28 07:45:00,70.7,70.1,29.55,South,173,0.0,15.0,98,0.00,,,0.10,Wunderground v.1.15,2013-06-28 11:45:00,
2013-06-28 07:55:00,70.8,70.2,29.55,SE,127,1.0,15.0,98,0.00,,,0.10,Wunderground v.1.15,2013-06-28 11:55:00,
2013-06-28 08:05:00,70.9,70.3,29.55,SE,129,1.0,15.0,98,0.00,,,0.10,Wunderground v.1.15,2013-06-28 12:05:00,
2013-06-28 08:10:00,71.0,70.4,29.55,ESE,105,1.0,15.0,98,0.00,,,0.10,Wunderground v.1.15,2013-06-28 12:10:00,
2013-06-28 08:20:00,71.1,70.5,29.55,East,82,0.0,15.0,98,0.00,,,0.10,Wunderground v.1.15,2013-06-28 12:20:00,
2013-06-28 08:25:00,71.2,70.6,29.55,ENE,73,0.0,15.0,98,0.00,,,0.10,Wunderground v.1.15,2013-06-28 12:25:00,
2013-06-28 08:35:00,71.3,70.7,29.54,ENE,74,0.0,15.0,98,0.00,,,0.10,Wunderground v.1.15,2013-06-28 12:35:00,
2013-06-28 08:40:00,71.3,70.7,29.54,ENE,73,0.0,15.0,98,0.00,,,0.10,Wunderground v.1.15,2013-06-28 12:40:00,
2013-06-28 08:45:00,71.4,70.8,29.54,SE,124,0.0,15.0,98,0.00,,,0.10,Wunderground v.1.15,2013-06-28 12:45:00,
2013-06-28 08:55:00,71.7,71.1,29.53,SE,132,0.0,15.0,98,0.00,,,0.10,Wunderground v.1.15,2013-06-28 12:55:00,
2013-06-28 09:05:00,72.0,71.4,29.53,ESE,120,1.0,15.0,98,0.00,,,0.10,Wunderground v.1.15,2013-06-28 13:05:00,
2013-06-28 09:15:00,72.2,71.3,29.53,East,94,0.0,15.0,97,0.00,,,0.10,Wunderground v.1.15,2013-06-28 13:15:00,
2013-06-28 09:20:00,72.4,71.5,29.52,SE,136,1.0,1.0,97,0.00,,,0.10,Wunderground v.1.15,2013-06-28 13:20:00,
2013-06-28 09:25:00,72.7,71.5,29.52,SE,134,1.0,15.0,96,0.00,,,0.10,Wunderground v.1.15,2013-06-28 13:25:00,
2013-06-28 09:35:00,73.4,71.9,29.52,SE,146,1.0,15.0,95,0.00,,,0.10,Wunderground v.1.15,2013-06-28 13:35:00,
2013-06-28 09:40:00,73.8,72.3,29.52,SSE,158,1.0,1.0,95,0.00,,,0.10,Wunderground v.1.15,2013-06-28 13:40:00,
2013-06-28 09:50:00,74.6,72.4,29.51,SE,144,1.0,1.0,93,0.00,,,0.10,Wunderground v.1.15,2013-06-28 13:50:00,
2013-06-28 09:55:00,74.8,72.3,29.51,ESE,104,1.0,15.0,92,0.00,,,0.10,Wunderground v.1.15,2013-06-28 13:55:00,
2013-06-28 10:05:00,75.4,72.9,29.51,SSW,197,0.0,15.0,92,0.00,,,0.10,Wunderground v.1.15,2013-06-28 14:05:00,
2013-06-28 10:10:00,76.0,72.9,29.51,SW,222,0.0,15.0,90,0.00,,,0.10,Wunderground v.1.15,2013-06-28 14:10:00,
2013-06-28 10:20:00,76.8,73.0,29.51,SE,129,1.0,15.0,88,0.00,,,0.10,Wunderground v.1.15,2013-06-28 14:20:00,
2013-06-28 10:25:00,77.1,72.2,29.51,SSE,153,1.0,15.0,85,0.00,,,0.10,Wunderground v.1.15,2013-06-28 14:25:00,
2013-06-28 10:35:00,78.1,72.9,29.51,SSE,153,1.0,15.0,84,0.00,,,0.10,Wunderground v.1.15,2013-06-28 14:35:00,
2013-06-28 10:40:00,79.2,73.2,29.51,SE,132,1.0,15.0,82,0.00,,,0.10,Wunderground v.1.15,2013-06-28 14:40:00,
2013-06-28 10:50:00,79.5,73.5,29.51,East,96,1.0,15.0,82,0.00,,,0.10,Wunderground v.1.15,2013-06-28 14:50:00,
2013-06-28 11:00:00,79.0,72.3,29.51,SE,131,1.0,1.0,80,0.00,,,0.10,Wunderground v.1.15,2013-06-28 15:00:00,
2013-06-28 11:10:00,78.4,72.1,29.51,ESE,111,0.0,15.0,81,0.00,,,0.10,Wunderground v.1.15,2013-06-28 15:10:00,
2013-06-28 11:20:00,78.1,72.2,29.52,SE,138,0.0,15.0,82,0.00,,,0.10,Wunderground v.1.15,2013-06-28 15:20:00,
2013-06-28 11:30:00,77.1,71.9,29.51,WSW,256,0.0,15.0,84,0.00,,,0.10,Wunderground v.1.15,2013-06-28 15:30:00,
2013-06-28 11:40:00,76.8,71.9,29.52,South,174,0.0,15.0,85,0.00,,,0.10,Wunderground v.1.15,2013-06-28 15:40:00,
2013-06-28 11:45:00,77.0,72.1,29.52,WSW,239,0.0,15.0,85,0.00,,,0.10,Wunderground v.1.15,2013-06-28 15:45:00,
2013-06-28 11:55:00,77.5,72.3,29.52,East,94,1.0,3.0,84,0.00,,,0.10,Wunderground v.1.15,2013-06-28 15:55:00,
2013-06-28 12:05:00,77.9,72.3,29.52,ESE,104,1.0,15.0,83,0.00,,,0.10,Wunderground v.1.15,2013-06-28 16:05:00,
2013-06-28 12:15:00,78.6,72.3,29.51,SE,128,1.0,15.0,81,0.00,,,0.10,Wunderground v.1.15,2013-06-28 16:15:00,
2013-06-28 12:25:00,78.8,72.8,29.51,East,92,1.0,15.0,82,0.00,,,0.10,Wunderground v.1.15,2013-06-28 16:25:00,
2013-06-28 12:35:00,78.9,72.2,29.50,SE,145,1.0,15.0,80,0.00,,,0.10,Wunderground v.1.15,2013-06-28 16:35:00,
2013-06-28 12:45:00,78.5,72.5,29.51,SE,128,1.0,2.0,82,0.00,,,0.10,Wunderground v.1.15,2013-06-28 16:45:00,
2013-06-28 12:55:00,79.0,73.0,29.51,SW,224,1.0,15.0,82,0.00,,,0.10,Wunderground v.1.15,2013-06-28 16:55:00,
2013-06-28 13:05:00,78.4,72.4,29.51,SSW,212,1.0,15.0,82,0.00,,,0.10,Wunderground v.1.15,2013-06-28 17:05:00,
2013-06-28 13:10:00,78.1,72.5,29.51,SSE,154,1.0,15.0,83,0.00,,,0.10,Wunderground v.1.15,2013-06-28 17:10:00,
2013-06-28 13:20:00,78.0,72.4,29.51,NW,316,1.0,1.0,83,0.00,,,0.10,Wunderground v.1.15,2013-06-28 17:20:00,
2013-06-28 13:25:00,78.4,72.4,29.51,SE,129,0.0,15.0,82,0.00,,,0.10,Wunderground v.1.15,2013-06-28 17:25:00,
2013-06-28 13:35:00,78.4,72.1,29.51,NE,55,1.0,15.0,81,0.00,,,0.10,Wunderground v.1.15,2013-06-28 17:35:00,
2013-06-28 13:45:00,78.4,71.3,29.51,SSW,193,1.0,15.0,79,0.00,,,0.10,Wunderground v.1.15,2013-06-28 17:45:00,
2013-06-28 13:55:00,77.4,71.5,29.51,SE,129,1.0,15.0,82,0.00,,,0.10,Wunderground v.1.15,2013-06-28 17:55:00,
2013-06-28 14:05:00,76.6,71.4,29.51,South,174,0.0,15.0,84,0.00,,,0.10,Wunderground v.1.15,2013-06-28 18:05:00,
2013-06-28 14:10:00,76.4,71.2,29.51,East,95,0.0,15.0,84,0.00,,,0.10,Wunderground v.1.15,2013-06-28 18:10:00,
2013-06-28 14:20:00,76.3,71.5,29.51,SE,124,1.0,15.0,85,0.00,,,0.10,Wunderground v.1.15,2013-06-28 18:20:00,
2013-06-28 14:25:00,76.4,71.2,29.51,SE,135,1.0,15.0,84,0.00,,,0.10,Wunderground v.1.15,2013-06-28 18:25:00,
2013-06-28 14:35:00,76.5,71.3,29.50,SW,215,1.0,15.0,84,0.00,,,0.10,Wunderground v.1.15,2013-06-28 18:35:00,
2013-06-28 14:45:00,76.9,72.0,29.50,SSW,197,0.0,15.0,85,0.00,,,0.10,Wunderground v.1.15,2013-06-28 18:45:00,
2013-06-28 14:55:00,77.3,71.7,29.50,SE,130,0.0,15.0,83,0.00,,,0.10,Wunderground v.1.15,2013-06-28 18:55:00,
2013-06-28 15:05:00,77.9,72.0,29.50,SE,136,1.0,15.0,82,0.00,,,0.10,Wunderground v.1.15,2013-06-28 19:05:00,
2013-06-28 15:15:00,78.3,72.0,29.50,SW,217,1.0,15.0,81,0.00,,,0.10,Wunderground v.1.15,2013-06-28 19:15:00,
2013-06-28 15:25:00,78.2,71.9,29.50,WNW,298,1.0,15.0,81,0.00,,,0.10,Wunderground v.1.15,2013-06-28 19:25:00,
2013-06-28 15:35:00,78.1,72.2,29.50,ESE,103,0.0,15.0,82,0.00,,,0.10,Wunderground v.1.15,2013-06-28 19:35:00,
2013-06-28 15:45:00,77.5,71.9,29.50,SSW,202,1.0,15.0,83,0.00,,,0.10,Wunderground v.1.15,2013-06-28 19:45:00,
2013-06-28 15:55:00,77.4,72.2,29.50,ENE,74,1.0,2.0,84,0.00,,,0.10,Wunderground v.1.15,2013-06-28 19:55:00,
2013-06-28 16:05:00,77.1,71.9,29.50,ENE,70,1.0,15.0,84,0.00,,,0.10,Wunderground v.1.15,2013-06-28 20:05:00,
2013-06-28 16:10:00,77.0,72.1,29.50,South,179,0.0,15.0,85,0.00,,,0.10,Wunderground v.1.15,2013-06-28 20:10:00,
2013-06-28 16:20:00,76.6,71.7,29.50,SSE,150,1.0,15.0,85,0.00,,,0.10,Wunderground v.1.15,2013-06-28 20:20:00,
2013-06-28 20:00:00,74.2,69.7,29.51,SE,136,0.0,15.0,86,0.00,,,0.10,Wunderground v.1.15,2013-06-29 00:00:00,
2013-06-28 20:10:00,73.8,69.7,29.50,SE,132,1.0,1.0,87,0.00,,,0.10,Wunderground v.1.15,2013-06-29 00:10:00,
2013-06-28 20:20:00,73.4,69.6,29.50,SE,129,0.0,15.0,88,0.00,,,0.10,Wunderground v.1.15,2013-06-29 00:20:00,
2013-06-28 20:30:00,73.1,69.7,29.51,SE,127,0.0,15.0,89,0.00,,,0.10,Wunderground v.1.15,2013-06-29 00:30:00,
2013-06-28 20:40:00,72.8,69.7,29.51,SE,129,0.0,15.0,90,0.00,,,0.10,Wunderground v.1.15,2013-06-29 00:40:00,
2013-06-28 20:50:00,72.6,69.5,29.52,ESE,115,0.0,15.0,90,0.00,,,0.10,Wunderground v.1.15,2013-06-29 00:50:00,
2013-06-28 21:00:00,72.4,69.6,29.52,ESE,112,0.0,15.0,91,0.00,,,0.10,Wunderground v.1.15,2013-06-29 01:00:00,
2013-06-28 21:05:00,72.3,69.5,29.53,ENE,77,0.0,15.0,91,0.00,,,0.10,Wunderground v.1.15,2013-06-29 01:05:00,
2013-06-28 21:10:00,72.2,69.7,29.52,East,84,0.0,15.0,92,0.00,,,0.10,Wunderground v.1.15,2013-06-29 01:10:00,
2013-06-28 21:20:00,71.9,69.8,29.53,East,84,0.0,15.0,93,0.00,,,0.10,Wunderground v.1.15,2013-06-29 01:20:00,
2013-06-28 21:25:00,71.9,69.8,29.54,SE,132,0.0,15.0,93,0.00,,,0.10,Wunderground v.1.15,2013-06-29 01:25:00,
2013-06-28 21:35:00,71.8,70.0,29.53,ESE,120,1.0,15.0,94,0.00,,,0.10,Wunderground v.1.15,2013-06-29 01:35:00,
2013-06-28 21:45:00,71.6,69.8,29.54,SW,236,1.0,15.0,94,0.00,,,0.10,Wunderground v.1.15,2013-06-29 01:45:00,
2013-06-28 21:55:00,71.7,69.9,29.54,ESE,110,0.0,15.0,94,0.00,,,0.10,Wunderground v.1.15,2013-06-29 01:55:00,
2013-06-28 22:05:00,71.7,69.9,29.54,East,88,0.0,15.0,94,0.00,,,0.10,Wunderground v.1.15,2013-06-29 02:05:00,
2013-06-28 22:10:00,71.7,70.2,29.53,SE,132,0.0,15.0,95,0.00,,,0.10,Wunderground v.1.15,2013-06-29 02:10:00,
2013-06-28 22:20:00,71.6,70.1,29.53,East,96,0.0,15.0,95,0.00,,,0.10,Wunderground v.1.15,2013-06-29 02:20:00,
2013-06-28 22:25:00,71.6,70.1,29.53,East,96,0.0,15.0,95,0.00,,,0.10,Wunderground v.1.15,2013-06-29 02:25:00,
2013-06-28 22:35:00,71.6,70.1,29.53,ESE,120,0.0,15.0,95,0.00,,,0.10,Wunderground v.1.15,2013-06-29 02:35:00,
2013-06-28 22:45:00,71.6,70.1,29.53,East,83,0.0,15.0,95,0.00,,,0.10,Wunderground v.1.15,2013-06-29 02:45:00,
2013-06-28 22:55:00,71.6,70.1,29.53,NE,36,0.0,15.0,95,0.00,,,0.10,Wunderground v.1.15,2013-06-29 02:55:00,
2013-06-28 23:05:00,71.6,70.4,29.52,SE,124,1.0,15.0,96,0.00,,,0.10,Wunderground v.1.15,2013-06-29 03:05:00,
2013-06-28 23:10:00,71.6,70.4,29.53,SE,129,1.0,15.0,96,0.00,,,0.10,Wunderground v.1.15,2013-06-29 03:10:00,
2013-06-28 23:20:00,71.5,70.3,29.53,ESE,120,1.0,1.0,96,0.00,,,0.10,Wunderground v.1.15,2013-06-29 03:20:00,
2013-06-28 23:25:00,71.5,70.3,29.53,ESE,110,0.0,15.0,96,0.00,,,0.10,Wunderground v.1.15,2013-06-29 03:25:00,
2013-06-28 23:35:00,71.5,70.3,29.53,East,81,0.0,15.0,96,0.00,,,0.10,Wunderground v.1.15,2013-06-29 03:35:00,
2013-06-28 23:45:00,71.4,70.5,29.53,East,83,0.0,15.0,97,0.00,,,0.10,Wunderground v.1.15,2013-06-29 03:45:00,
2013-06-28 23:55:00,71.5,70.6,29.53,East,101,0.0,15.0,97,0.00,,,0.10,Wunderground v.1.15,2013-06-29 03:55:00,